Nearby METAR Reports

 

KDCA - Washington/Natl, Washington D.c., USA
Distance from station: NE 2mi, 3km
Updated: Sat, 23-Sep-2017 4:52am EDT
Partly Cloudy
Partly Cloudy
 Wind from NNW
Wind: NNW 7 mph , 11 km/h
Temperature: 66°F , 19°C
Dew Point: 61°F , 16°C
Humidity: 83%
Barometer: 30.04 inHg , 1017.3 hPa
Clouds: Partly Cloudy
Visibility: 10 miles , 16 km
Cloud details: Partly Cloudy 25000 ft
2017/09/23 08:52 KDCA 230852Z 34006KT 10SM SCT250 19/16 A3004 RMK AO2 SLP171 T01890161 53003 $
KDAA - Fort Belvoir/Dav, Virginia, USA
Distance from station: SW 10mi, 16km
Updated: Sat, 23-Sep-2017 4:56am EDT
Clear
Clear
 Wind from calm
Wind: Calm
Temperature: 61°F , 16°C
Dew Point: 59°F , 15°C
Humidity: 94%
Barometer: 30.03 inHg , 1016.9 hPa
Clouds: Clear
Visibility: 10 miles , 16 km
2017/09/23 08:56 KDAA 230856Z AUTO 00000KT 10SM CLR 16/15 A3003 RMK AO2 SLP172 T01600152 53002 $
 
KIAD - Wash Dc/Dulles, Virginia, USA
Distance from station: WNW 22mi, 35km
Updated: Sat, 23-Sep-2017 4:52am EDT
Mostly Cloudy
Mostly Cloudy
 Wind from NW
Wind: NW 3 mph , 6 km/h
Temperature: 61°F , 16°C
Dew Point: 61°F , 16°C
Humidity: 100%
Barometer: 30.05 inHg , 1017.6 hPa
Clouds: Mostly Cloudy
Visibility: 10 miles , 16 km
Cloud details: Mostly Cloudy 25000 ft
2017/09/23 08:52 KIAD 230852Z 32003KT 10SM BKN250 16/16 A3005 RMK AO2 SLP173 T01560156 53002
KHEF - Manassas Muni, Virginia, USA
Distance from station: WSW 26mi, 41km
Updated: Sat, 23-Sep-2017 4:56am EDT
Mist, Clear
Mist, Clear
 Wind from calm
Wind: Calm
Temperature: 55°F , 13°C
Dew Point: 55°F , 13°C
Humidity: 100%
Barometer: 30.05 inHg , 1017.6 hPa
Summary: Mist
Clouds: Clear
Visibility: 2 1/2 miles , 2 km
2017/09/23 08:56 KHEF 230856Z AUTO 00000KT 2 1/2SM BR CLR 13/13 A3005 RMK AO2 SLP186 6//// T01330133 53002 PNO $
 
KRMN - Stafford Regnl, Virginia, USA
Distance from station: SW 36mi, 59km
Updated: Sat, 23-Sep-2017 4:55am EDT
Mist, Clear
Mist, Clear
 Wind from N
Wind: N 6 mph , 9 km/h
Temperature: 57°F , 14°C
Dew Point: 57°F , 14°C
Humidity: 100%
Barometer: 30.08 inHg , 1018.6 hPa
Summary: Mist
Clouds: Clear
Visibility: 3 miles , 5 km
2017/09/23 08:55 KRMN 230855Z AUTO 35005KT 3SM BR CLR 14/14 A3008 RMK AO2 T01400140
KNYG - Quantico Mcaf, Virginia, USA
Distance from station: SSW 26mi, 42km
Updated: Sat, 23-Sep-2017 4:56am EDT

 Wind from NW
Wind: NW 5 mph , 7 km/h
Temperature: 66°F , 19°C
Dew Point: 64°F , 18°C
Humidity: 94%
Barometer: 30.05 inHg , 1017.6 hPa
Visibility: 10 miles , 16 km
2017/09/23 08:56 KNYG 230856Z AUTO 31004KT 10SM 19/18 A3005 RMK AO2 SLP175 T01890178 53002 $
 
KJYO - Leesburg/Godfrey, Virginia, USA
Distance from station: WNW 31mi, 51km
Updated: Sat, 23-Sep-2017 4:55am EDT
Clear
Clear
 Wind from N
Wind: N 5 mph , 7 km/h
Temperature: 59°F , 15°C
Dew Point: 59°F , 15°C
Humidity: 100%
Barometer: 30.07 inHg , 1018.3 hPa
Clouds: Clear
Visibility: 10 miles , 16 km
2017/09/23 08:55 KJYO 230855Z AUTO 35004KT 10SM CLR 15/15 A3007 RMK AO2
KCJR - Culpeper, Virginia, USA
Distance from station: WSW 48mi, 77km
Updated: Sat, 23-Sep-2017 4:55am EDT
Clear
Clear
 Wind from calm
Wind: Calm
Temperature: 61°F , 16°C
Dew Point: 61°F , 16°C
Humidity: 100%
Barometer: 30.06 inHg , 1017.9 hPa
Clouds: Clear
Visibility: 10 miles , 16 km
2017/09/23 08:55 KCJR 230855Z AUTO 00000KT 10SM CLR 16/16 A3006 RMK AO2 T01640162
 
KHWY - Warrenton, Virginia, USA
Distance from station: WSW 39mi, 63km
Updated: Sat, 23-Sep-2017 4:55am EDT
Mist, Clear
Mist, Clear
 Wind from calm
Wind: Calm
Temperature: 54°F , 12°C
Dew Point: 52°F , 11°C
Humidity: 94%
Barometer: 30.05 inHg , 1017.6 hPa
Summary: Mist
Clouds: Clear
Visibility: 4 miles , 6 km
2017/09/23 08:55 KHWY 230855Z AUTO 00000KT 4SM BR CLR 12/11 A3005 RMK AO2 T01220107
KADW - Andrews Afb, Maryland, USA
Distance from station: E 11mi, 17km
Updated: Sat, 23-Sep-2017 3:58am EDT
Clear
Clear
 Wind from calm
Wind: Calm
Temperature: 63°F , 17°C
Dew Point: 57°F , 14°C
Humidity: 83%
Barometer: 30.02 inHg , 1016.6 hPa
Clouds: Clear
Visibility: 10 miles , 16 km
2017/09/23 07:58 KADW 230758Z AUTO 00000KT 10SM CLR 17/14 A3002 RMK AO2 SLP171 T01690138
 
KCGS - College Park, Maryland, USA
Distance from station: NE 13mi, 21km
Updated: Sat, 23-Sep-2017 4:45am EDT
Clear
Clear
 Wind from calm
Wind: Calm
Temperature: 59°F , 15°C
Dew Point: 57°F , 14°C
Humidity: 94%
Barometer: 30.03 inHg , 1016.9 hPa
Clouds: Clear
Visibility: 10 miles , 16 km
2017/09/23 08:45 KCGS 230845Z AUTO 00000KT 10SM CLR 15/14 A3003 RMK AO1 T01480144
KFME - Fort Meade, Maryland, USA
Distance from station: NE 24mi, 38km
Updated: Sat, 23-Sep-2017 4:45am EDT
Clear
Clear
 Wind from calm
Wind: Calm
Temperature: 55°F , 13°C
Dew Point: 55°F , 13°C
Humidity: 100%
Barometer: 30.06 inHg , 1017.9 hPa
Clouds: Clear
Visibility: 5 miles , 8 km
2017/09/23 08:45 KFME 230845Z AUTO 00000KT 5SM CLR 13/13 A3006 RMK AO1
 
KGAI - Gaithersburg, Maryland, USA
Distance from station: NNW 24mi, 38km
Updated: Sat, 23-Sep-2017 4:56am EDT
Clear
Clear
 Wind from calm
Wind: Calm
Temperature: 57°F , 14°C
Dew Point: 55°F , 13°C
Humidity: 94%
Barometer: 30.07 inHg , 1018.3 hPa
Clouds: Clear
Visibility: 10 miles , 16 km
2017/09/23 08:56 KGAI 230856Z AUTO 00000KT 10SM CLR 14/13 A3007 RMK AO2 SLP206 T01440133 53004
KBWI - Balto/Wash Intl, Maryland, USA
Distance from station: NE 31mi, 50km
Updated: Sat, 23-Sep-2017 4:54am EDT
Few Clouds
Few Clouds
 Wind from WNW
Wind: WNW 3 mph , 6 km/h
Temperature: 59°F , 15°C
Dew Point: 57°F , 14°C
Humidity: 94%
Barometer: 30.03 inHg , 1016.9 hPa
Clouds: Few Clouds
Visibility: 10 miles , 16 km
Cloud details: Few Clouds 25000 ft
2017/09/23 08:54 KBWI 230854Z 29003KT 10SM FEW250 15/14 A3003 RMK AO2 SLP169 T01500144 53007
 
KNAK - Annapolis/Naval, Maryland, USA
Distance from station: ENE 33mi, 53km
Updated: Sat, 23-Sep-2017 4:54am EDT
Clear
Clear
 Wind from NW
Wind: NW 3 mph , 6 km/h
Temperature: 70°F , 21°C
Dew Point: 66°F , 19°C
Humidity: 88%
Barometer: 30.02 inHg , 1016.6 hPa
Clouds: Clear
Visibility: 10 miles , 16 km
2017/09/23 08:54 KNAK 230854Z AUTO 32003KT 10SM CLR 21/19 A3002 RMK AO2 SLP166 T02110189 53004
KDMH - Baltimore/Dwntwn, Maryland, USA
Distance from station: NE 39mi, 63km
Updated: Sat, 23-Sep-2017 4:54am EDT

 
Temperature: 72°F , 22°C
Dew Point: 54°F , 12°C
Humidity: 53%
Barometer: 30.03 inHg , 1016.9 hPa
2017/09/23 08:54 KDMH 230854Z AUTO 22/12 A3003 RMK AO1 SLP170 T02170117 53006
 
KW29 - Stevensville, Maryland, USA
Distance from station: ENE 41mi, 65km
Updated: Sat, 23-Sep-2017 4:40am EDT
Clear
Clear
 Wind from calm
Wind: Calm
Temperature: 70°F , 21°C
Dew Point: 59°F , 15°C
Humidity: 69%
Barometer: 30.02 inHg , 1016.6 hPa
Clouds: Clear
Visibility: 10 miles , 16 km
2017/09/23 08:40 KW29 230840Z AUTO 00000KT 10SM CLR 21/15 A3002 RMK AO2
KFDK - Frederick, Maryland, USA
Distance from station: NNW 43mi, 70km
Updated: Sat, 23-Sep-2017 4:45am EDT
Mist, Overcast
Mist, Overcast
 Wind from calm
Wind: Calm
Temperature: 55°F , 13°C
Dew Point: 55°F , 13°C
Humidity: 100%
Barometer: 30.09 inHg , 1019 hPa
Summary: Mist
Clouds: Overcast
Visibility: 3/4 mile , 5 km
Cloud details: Overcast 100 ft
2017/09/23 08:45 KFDK 230845Z AUTO 00000KT 3/4SM BR OVC001 13/13 A3009 RMK AO2
 
KEZF - Fredericksb/Shan, Virginia, USA
Distance from station: SSW 44mi, 71km
Updated: Sat, 23-Sep-2017 4:55am EDT
Clear
Clear
 Wind from calm
Wind: Calm
Temperature: 63°F , 17°C
Dew Point: 63°F , 17°C
Humidity: 100%
Barometer: 30.03 inHg , 1016.9 hPa
Clouds: Clear
Visibility: 10 miles , 16 km
2017/09/23 08:55 KEZF 230855Z AUTO 00000KT 10SM CLR 17/17 A3003 RMK AO2 T01690169
K2W6 - St Marys (duke), Maryland, USA
Distance from station: SE 45mi, 73km
Updated: Sat, 23-Sep-2017 4:57am EDT
Clear
Clear
 Wind from calm
Wind: Calm
Temperature: 63°F , 17°C
Dew Point: 61°F , 16°C
Humidity: 94%
Barometer: 30.04 inHg , 1017.3 hPa
Clouds: Clear
Visibility: 7 miles , 11 km
2017/09/23 08:57 K2W6 230857Z AUTO 00000KT 7SM CLR 17/16 A3004 RMK AO1

Metar display script from Saratoga-Weather.org